Time;durP1;ratioP1;P1;durP2;ratioP2;P2;SDS_P1;SDS_P2;PMS_P1;PMS_P2;Temp;Humidity;BMP_temperature;BMP_pressure;BME280_temperature;BME280_humidity;BME280_pressure;Samples;Min_cycle;Max_cycle;Signal;HPM_P1;HPM_P2
2022/10/22 00:01:57;;;;;;;48.80;24.92;;;12.70;99.90;;;;;;5021663;28;20034;-61
2022/10/22 00:04:22;;;;;;;58.65;27.15;;;12.80;99.90;;;;;;5020350;28;20025;-61
2022/10/22 00:06:48;;;;;;;41.67;24.25;;;12.70;99.90;;;;;;5017224;28;20038;-61
2022/10/22 00:09:14;;;;;;;56.20;26.42;;;12.70;99.90;;;;;;5022238;28;20025;-61
2022/10/22 00:11:40;;;;;;;45.47;24.55;;;12.80;99.90;;;;;;5019252;28;20701;-61
2022/10/22 00:14:06;;;;;;;40.85;25.13;;;12.70;99.90;;;;;;5018894;28;20054;-61
2022/10/22 00:16:32;;;;;;;57.45;27.13;;;12.70;99.90;;;;;;5016382;28;20595;-62
2022/10/22 00:18:58;;;;;;;39.63;25.55;;;12.80;99.90;;;;;;5026462;28;20042;-61
2022/10/22 00:21:24;;;;;;;60.80;29.02;;;12.70;99.90;;;;;;5019702;28;20037;-61
2022/10/22 00:23:50;;;;;;;56.13;28.38;;;12.80;99.90;;;;;;5019715;28;20060;-61
2022/10/22 00:26:16;;;;;;;47.50;27.02;;;12.80;99.90;;;;;;5018640;28;20050;-62
2022/10/22 00:28:41;;;;;;;51.33;27.60;;;12.70;99.90;;;;;;5018885;28;20029;-60
2022/10/22 00:31:07;;;;;;;46.00;27.45;;;12.70;99.90;;;;;;5019936;28;20029;-61
2022/10/22 00:33:33;;;;;;;51.45;27.55;;;12.80;99.90;;;;;;5018033;28;20026;-60
2022/10/22 00:35:58;;;;;;;54.33;27.92;;;12.80;99.90;;;;;;5017116;28;20114;-60
2022/10/22 00:38:24;;;;;;;42.22;26.55;;;12.70;99.90;;;;;;5021006;28;20033;-61
2022/10/22 00:40:50;;;;;;;58.10;30.02;;;12.80;99.90;;;;;;5021384;28;20048;-61
2022/10/22 00:43:18;;;;;;;54.05;28.42;;;12.80;99.90;;;;;;5020461;28;20079;-62
2022/10/22 00:45:44;;;;;;;54.55;27.27;;;12.80;99.90;;;;;;5021172;28;20141;-61
2022/10/22 00:48:16;;;;;;;43.83;26.77;;;12.80;99.90;;;;;;5017181;28;20502;-62
2022/10/22 00:51:04;;;;;;;60.65;27.67;;;12.80;99.90;;;;;;5020694;28;20484;-60
2022/10/22 00:53:40;;;;;;;40.45;24.58;;;12.80;99.90;;;;;;5020933;28;20022;-62
2022/10/22 00:56:07;;;;;;;35.33;24.15;;;12.80;99.90;;;;;;5037349;28;20061;-61
2022/10/22 00:58:38;;;;;;;34.47;23.83;;;12.80;99.90;;;;;;5039312;28;20496;-61
2022/10/22 01:01:07;;;;;;;41.53;25.20;;;12.80;99.90;;;;;;5038606;28;20041;-62
2022/10/22 01:03:33;;;;;;;39.03;24.15;;;12.80;99.90;;;;;;5037247;28;20033;-60
2022/10/22 01:06:02;;;;;;;50.58;25.52;;;12.80;99.90;;;;;;5034845;28;20047;-60
2022/10/22 01:08:51;;;;;;;40.30;23.65;;;12.80;99.90;;;;;;5036947;28;20028;-61
2022/10/22 01:11:19;;;;;;;49.13;25.58;;;12.80;99.90;;;;;;5037378;28;20544;-61
2022/10/22 01:14:03;;;;;;;39.72;24.17;;;12.80;99.90;;;;;;5037807;28;20029;-60
2022/10/22 01:16:46;;;;;;;43.30;24.35;;;12.80;99.90;;;;;;5037907;28;20040;-61
2022/10/22 01:19:17;;;;;;;53.10;24.90;;;12.80;99.90;;;;;;5021919;28;20040;-62
2022/10/22 01:21:49;;;;;;;44.95;24.90;;;12.80;99.90;;;;;;5036344;28;20493;-60
2022/10/22 01:24:46;;;;;;;42.95;23.85;;;12.80;99.90;;;;;;5041981;28;20497;-61
2022/10/22 01:27:24;;;;;;;50.08;24.70;;;12.80;99.90;;;;;;5035240;28;20520;-62
2022/10/22 01:29:55;;;;;;;35.67;22.52;;;12.90;99.90;;;;;;5040378;28;20016;-61
2022/10/22 01:32:26;;;;;;;45.35;23.20;;;12.90;99.90;;;;;;5038874;28;20075;-61
2022/10/22 01:34:58;;;;;;;34.10;22.27;;;12.90;99.90;;;;;;5040988;28;20040;-61
2022/10/22 01:37:28;;;;;;;44.47;22.88;;;12.90;99.90;;;;;;5041440;28;20021;-61
2022/10/22 01:39:56;;;;;;;38.67;20.90;;;12.90;99.90;;;;;;5035816;28;20031;-61
2022/10/22 01:42:23;;;;;;;30.95;21.58;;;12.90;99.90;;;;;;5037271;28;20071;-61
2022/10/22 01:44:49;;;;;;;39.10;22.38;;;12.90;99.90;;;;;;5038312;28;20032;-61
2022/10/22 01:47:28;;;;;;;32.58;21.08;;;12.90;99.90;;;;;;5040382;28;20357;-62
2022/10/22 01:50:11;;;;;;;34.55;21.10;;;12.90;99.90;;;;;;5033596;28;20113;-62
2022/10/22 01:52:40;;;;;;;30.05;21.15;;;12.90;99.90;;;;;;5037239;28;20022;-61
2022/10/22 01:55:18;;;;;;;33.72;20.38;;;12.90;99.90;;;;;;5038052;28;20021;-62
2022/10/22 01:57:51;;;;;;;32.17;20.17;;;13.00;99.90;;;;;;5037393;28;20021;-60
2022/10/22 02:00:18;;;;;;;30.83;20.23;;;13.00;99.90;;;;;;5041651;28;20025;-60
2022/10/22 02:02:59;;;;;;;27.95;19.60;;;13.00;99.90;;;;;;5036322;28;20088;-62
2022/10/22 02:05:39;;;;;;;24.67;18.33;;;13.00;99.90;;;;;;5039622;28;20028;-61
2022/10/22 02:08:11;;;;;;;25.95;18.35;;;13.00;99.90;;;;;;5008808;28;20049;-62
2022/10/22 02:10:39;;;;;;;27.15;19.08;;;13.00;99.90;;;;;;5034581;28;20013;-61
2022/10/22 02:13:08;;;;;;;23.83;18.58;;;13.00;99.90;;;;;;5041303;28;20080;-61
2022/10/22 02:15:36;;;;;;;29.45;19.45;;;13.00;99.90;;;;;;5042869;28;20094;-61
2022/10/22 02:18:04;;;;;;;28.75;18.23;;;13.00;99.90;;;;;;5043921;28;20429;-62
2022/10/22 02:20:34;;;;;;;34.13;20.00;;;13.00;99.90;;;;;;5043917;28;20040;-60
2022/10/22 02:23:00;;;;;;;28.17;18.77;;;13.00;99.90;;;;;;5039213;28;20109;-61
2022/10/22 02:25:30;;;;;;;30.48;19.88;;;13.00;99.90;;;;;;5044324;28;20060;-61
2022/10/22 02:28:08;;;;;;;25.38;18.95;;;13.00;99.90;;;;;;5044539;28;20078;-61
2022/10/22 02:30:36;;;;;;;20.77;18.63;;;13.00;99.90;;;;;;5042340;28;20110;-61
2022/10/22 02:33:06;;;;;;;27.73;18.20;;;13.00;99.90;;;;;;5040946;28;20030;-62
2022/10/22 02:35:33;;;;;;;31.25;17.52;;;13.00;99.90;;;;;;5043966;28;20025;-61
2022/10/22 02:37:59;;;;;;;35.15;19.35;;;13.00;99.90;;;;;;5044144;28;20037;-61
2022/10/22 02:40:26;;;;;;;24.20;18.48;;;13.00;99.90;;;;;;5044715;28;20021;-60
2022/10/22 02:42:52;;;;;;;22.38;17.65;;;13.00;99.90;;;;;;5044884;28;20377;-61
2022/10/22 02:45:19;;;;;;;28.55;18.88;;;13.00;99.90;;;;;;5041514;28;20025;-61
2022/10/22 02:47:44;;;;;;;29.80;17.88;;;13.00;99.90;;;;;;5043291;28;20021;-60
2022/10/22 02:50:10;;;;;;;31.73;19.33;;;13.00;99.90;;;;;;5042964;28;20033;-61
2022/10/22 02:52:36;;;;;;;22.60;19.58;;;12.90;99.90;;;;;;5044399;28;20025;-61
2022/10/22 02:55:02;;;;;;;25.65;17.83;;;12.90;99.90;;;;;;5040849;28;20033;-61
2022/10/22 02:57:28;;;;;;;32.15;18.08;;;12.90;99.90;;;;;;5039408;28;20028;-61
2022/10/22 02:59:53;;;;;;;25.40;17.60;;;12.90;99.90;;;;;;5025092;28;20042;-62
2022/10/22 03:02:19;;;;;;;28.23;18.17;;;12.90;99.90;;;;;;5047580;28;20017;-61
2022/10/22 03:04:45;;;;;;;28.80;19.85;;;12.90;99.90;;;;;;5045250;28;20025;-61
2022/10/22 03:07:10;;;;;;;31.85;19.92;;;12.80;99.90;;;;;;5044405;28;20029;-61
2022/10/22 03:09:36;;;;;;;50.63;21.25;;;12.80;99.90;;;;;;5040173;28;20501;-61
2022/10/22 03:12:01;;;;;;;56.22;20.75;;;12.80;99.90;;;;;;5043758;28;20030;-62
2022/10/22 03:14:27;;;;;;;50.78;20.75;;;12.80;99.90;;;;;;5042994;28;20029;-61
2022/10/22 03:16:53;;;;;;;45.33;21.35;;;12.70;99.90;;;;;;5042212;28;20582;-60
2022/10/22 03:19:18;;;;;;;50.88;22.85;;;12.70;99.90;;;;;;5043592;28;20033;-61
2022/10/22 03:22:06;;;;;;;45.85;21.45;;;12.70;99.90;;;;;;5039244;28;20025;-60
2022/10/22 03:24:40;;;;;;;44.55;21.00;;;12.80;99.90;;;;;;5036204;28;20060;-61
2022/10/22 03:27:06;;;;;;;35.65;21.23;;;12.80;99.90;;;;;;5042141;28;20033;-61
2022/10/22 03:29:34;;;;;;;62.97;23.85;;;12.80;99.90;;;;;;5038083;28;20035;-62
2022/10/22 03:32:00;;;;;;;47.92;21.52;;;12.90;99.90;;;;;;5039149;28;20051;-61
2022/10/22 03:34:26;;;;;;;37.15;21.95;;;12.90;99.90;;;;;;5036018;28;20021;-61
2022/10/22 03:36:53;;;;;;;35.67;20.98;;;12.90;99.90;;;;;;5038697;28;20030;-62
2022/10/22 03:39:21;;;;;;;39.33;20.35;;;12.90;99.90;;;;;;5043585;28;20026;-62
2022/10/22 03:41:48;;;;;;;58.17;22.58;;;12.90;99.90;;;;;;5039561;28;20021;-59
2022/10/22 03:44:15;;;;;;;68.22;23.70;;;12.90;99.90;;;;;;5042183;28;20024;-62
2022/10/22 03:46:41;;;;;;;39.90;21.75;;;12.90;99.90;;;;;;5038213;28;20082;-62
2022/10/22 03:49:07;;;;;;;46.63;22.65;;;12.90;99.90;;;;;;5039800;28;20033;-61
2022/10/22 03:51:33;;;;;;;75.65;24.25;;;12.90;99.90;;;;;;5040229;28;20034;-60
2022/10/22 03:53:58;;;;;;;43.15;21.10;;;12.90;99.90;;;;;;5040316;28;20030;-62
2022/10/22 03:56:24;;;;;;;31.48;20.60;;;12.90;99.90;;;;;;5040934;28;20021;-61
2022/10/22 03:58:50;;;;;;;89.63;25.05;;;12.90;99.90;;;;;;5037395;28;20021;-60
2022/10/22 04:01:15;;;;;;;41.42;20.95;;;12.90;99.90;;;;;;5037893;28;20120;-61
2022/10/22 04:03:41;;;;;;;33.30;20.13;;;12.90;99.90;;;;;;5042959;28;20029;-61
2022/10/22 04:06:10;;;;;;;40.95;20.10;;;12.90;99.90;;;;;;5037183;28;20032;-61
2022/10/22 04:08:38;;;;;;;34.92;20.80;;;12.90;99.90;;;;;;5037665;28;20100;-61
2022/10/22 04:11:04;;;;;;;39.42;21.45;;;12.90;99.90;;;;;;5041144;28;20021;-62
2022/10/22 04:13:29;;;;;;;28.42;19.63;;;12.90;99.90;;;;;;5038654;28;20025;-61
2022/10/22 04:15:55;;;;;;;32.72;19.88;;;13.00;99.90;;;;;;5041876;28;20021;-61
2022/10/22 04:18:22;;;;;;;34.33;18.70;;;13.00;99.90;;;;;;5039612;28;20104;-61
2022/10/22 04:20:47;;;;;;;64.10;21.95;;;13.00;99.90;;;;;;5040777;28;20470;-60
2022/10/22 04:23:13;;;;;;;29.15;18.52;;;13.00;99.90;;;;;;5037443;28;20028;-61
2022/10/22 04:25:39;;;;;;;26.20;18.00;;;13.00;99.90;;;;;;5040943;28;20082;-61
2022/10/22 04:28:08;;;;;;;26.10;16.27;;;13.00;99.90;;;;;;5039629;28;20036;-61
2022/10/22 04:30:35;;;;;;;52.70;21.05;;;13.00;99.90;;;;;;5038933;28;20039;-61
2022/10/22 04:33:01;;;;;;;23.17;16.75;;;13.00;99.90;;;;;;5039704;28;20080;-61
2022/10/22 04:35:28;;;;;;;26.08;16.00;;;13.00;99.90;;;;;;5036731;28;20029;-60
2022/10/22 04:37:54;;;;;;;21.70;14.77;;;13.00;99.90;;;;;;5041218;28;20059;-61
2022/10/22 04:40:20;;;;;;;12.73;10.57;;;13.00;99.90;;;;;;5039036;28;20539;-60
2022/10/22 04:42:45;;;;;;;17.00;11.10;;;13.00;99.90;;;;;;5039394;28;20033;-61
2022/10/22 04:45:11;;;;;;;12.07;9.25;;;13.00;99.90;;;;;;5038537;28;20120;-61
2022/10/22 04:47:37;;;;;;;8.73;7.68;;;13.00;99.90;;;;;;5039652;28;20382;-61
2022/10/22 04:50:03;;;;;;;11.73;7.57;;;13.00;99.90;;;;;;5040962;28;20405;-61
2022/10/22 04:52:29;;;;;;;13.05;7.75;;;13.00;99.90;;;;;;5038827;28;20029;-61
2022/10/22 04:54:55;;;;;;;14.07;8.85;;;13.00;99.90;;;;;;5037015;28;20029;-62
2022/10/22 04:57:21;;;;;;;9.25;8.35;;;13.00;99.90;;;;;;5038293;28;20021;-61
2022/10/22 04:59:46;;;;;;;10.98;8.27;;;13.00;99.90;;;;;;5039955;28;20040;-60
2022/10/22 05:02:12;;;;;;;11.70;9.85;;;13.00;99.90;;;;;;5039257;28;20025;-62
2022/10/22 05:04:37;;;;;;;18.90;11.23;;;13.00;99.90;;;;;;5038360;28;20029;-61
2022/10/22 05:07:03;;;;;;;15.95;12.50;;;13.00;99.90;;;;;;5039611;28;20029;-61
2022/10/22 05:09:29;;;;;;;23.40;12.65;;;12.90;99.90;;;;;;5036625;28;20033;-60
2022/10/22 05:11:54;;;;;;;36.75;13.43;;;12.90;99.90;;;;;;5039169;28;20040;-62
2022/10/22 05:14:22;;;;;;;23.77;12.02;;;12.90;99.90;;;;;;5040312;28;20029;-60
2022/10/22 05:16:48;;;;;;;18.20;11.65;;;12.90;99.90;;;;;;5035811;28;20036;-61
2022/10/22 05:19:23;;;;;;;21.02;11.90;;;12.90;99.90;;;;;;5039336;28;20032;-61
2022/10/22 05:21:55;;;;;;;24.65;11.13;;;12.90;99.90;;;;;;5038871;28;20120;-61
2022/10/22 05:24:21;;;;;;;16.55;10.35;;;12.90;99.90;;;;;;5035715;28;20435;-61
2022/10/22 05:26:51;;;;;;;26.40;11.38;;;12.90;99.90;;;;;;5038350;28;20060;-60
2022/10/22 05:29:17;;;;;;;18.13;11.32;;;12.90;99.90;;;;;;5035413;28;20576;-61
2022/10/22 05:31:42;;;;;;;9.63;8.65;;;12.90;99.90;;;;;;5027960;28;20032;-62
2022/10/22 05:34:08;;;;;;;13.05;8.30;;;12.90;99.90;;;;;;5040728;28;20042;-61
2022/10/22 05:36:33;;;;;;;8.05;7.00;;;13.00;99.90;;;;;;5037171;28;20032;-61
2022/10/22 05:38:59;;;;;;;9.90;7.60;;;13.00;99.90;;;;;;5039768;28;20111;-62
2022/10/22 05:41:26;;;;;;;12.45;7.85;;;13.00;99.90;;;;;;5036330;28;20022;-62
2022/10/22 05:43:57;;;;;;;11.25;8.05;;;13.00;99.90;;;;;;5041050;28;20036;-62
2022/10/22 05:46:24;;;;;;;40.17;10.57;;;13.00;99.90;;;;;;5033115;28;20051;-62
2022/10/22 05:48:58;;;;;;;32.22;10.23;;;13.00;99.90;;;;;;5037855;28;20272;-61
2022/10/22 05:51:26;;;;;;;9.82;7.68;;;13.00;99.90;;;;;;5038924;28;20435;-59
2022/10/22 05:53:54;;;;;;;26.23;9.65;;;13.00;99.90;;;;;;5038678;28;20104;-61
2022/10/22 05:56:21;;;;;;;21.88;10.25;;;13.00;99.90;;;;;;5035556;28;20013;-61
2022/10/22 05:58:47;;;;;;;27.15;11.48;;;12.90;99.90;;;;;;5038520;28;20025;-61
2022/10/22 06:01:13;;;;;;;47.20;12.43;;;12.90;99.90;;;;;;5040217;28;20034;-62
2022/10/22 06:03:38;;;;;;;34.35;11.63;;;12.90;99.90;;;;;;5040763;28;20406;-59
2022/10/22 06:06:14;;;;;;;24.90;10.98;;;12.90;99.90;;;;;;5035396;28;20113;-61
2022/10/22 06:08:40;;;;;;;16.35;7.53;;;12.80;99.90;;;;;;5038586;28;20026;-61
2022/10/22 06:11:06;;;;;;;17.75;9.52;;;12.90;99.90;;;;;;5036622;28;20746;-61
2022/10/22 06:13:31;;;;;;;10.68;6.13;;;12.90;99.90;;;;;;5036774;28;20053;-61
2022/10/22 06:15:57;;;;;;;21.30;8.43;;;12.90;99.90;;;;;;5037064;28;20069;-60
2022/10/22 06:18:23;;;;;;;10.70;6.55;;;12.90;99.90;;;;;;5035510;28;20053;-61
2022/10/22 06:20:48;;;;;;;12.45;5.35;;;12.90;99.90;;;;;;5032658;28;20452;-60
2022/10/22 06:23:14;;;;;;;15.35;7.22;;;12.90;99.90;;;;;;5037909;28;20454;-61
2022/10/22 06:25:42;;;;;;;9.00;6.15;;;12.90;99.90;;;;;;5040024;28;20457;-61
2022/10/22 06:28:08;;;;;;;6.35;5.13;;;12.90;99.90;;;;;;5037310;28;20040;-60
2022/10/22 06:30:33;;;;;;;8.02;5.15;;;12.90;99.90;;;;;;5035717;28;20029;-61
2022/10/22 06:32:59;;;;;;;14.73;5.75;;;12.90;99.90;;;;;;5034267;28;20033;-61
2022/10/22 06:35:24;;;;;;;10.45;6.03;;;12.90;99.90;;;;;;5031467;28;20029;-61
2022/10/22 06:37:50;;;;;;;8.88;5.30;;;12.90;99.90;;;;;;5033684;28;20076;-60
2022/10/22 06:40:17;;;;;;;9.05;5.05;;;12.90;99.90;;;;;;5038073;28;20036;-62
2022/10/22 06:42:43;;;;;;;11.50;5.40;;;12.90;99.90;;;;;;5016818;28;20033;-61
2022/10/22 06:45:09;;;;;;;6.40;5.30;;;12.90;99.90;;;;;;5036854;28;20362;-61
2022/10/22 06:47:35;;;;;;;10.85;5.85;;;12.90;99.90;;;;;;5037472;28;20453;-62
2022/10/22 06:50:00;;;;;;;8.57;5.30;;;12.90;99.90;;;;;;5041865;28;20055;-61
2022/10/22 06:52:26;;;;;;;10.43;5.70;;;12.90;99.90;;;;;;5040705;28;20533;-62
2022/10/22 06:54:55;;;;;;;9.43;6.35;;;13.00;99.90;;;;;;5036926;28;20421;-61
2022/10/22 06:57:21;;;;;;;18.58;7.70;;;13.00;99.90;;;;;;5022006;28;20018;-62
2022/10/22 06:59:46;;;;;;;7.93;6.55;;;13.00;99.90;;;;;;5036660;28;20501;-61
2022/10/22 07:02:12;;;;;;;7.32;6.10;;;13.10;99.90;;;;;;5041604;28;20060;-61
2022/10/22 07:04:38;;;;;;;8.40;5.35;;;13.10;99.90;;;;;;5041806;28;20040;-61
2022/10/22 07:07:03;;;;;;;9.73;5.15;;;13.00;99.90;;;;;;5039703;28;20029;-61
2022/10/22 07:09:29;;;;;;;4.72;3.13;;;13.00;99.90;;;;;;5040136;28;20455;-60
2022/10/22 07:11:54;;;;;;;8.38;3.35;;;13.00;99.90;;;;;;5039146;28;20087;-61
2022/10/22 07:14:20;;;;;;;5.50;3.42;;;13.00;99.90;;;;;;5039286;28;20032;-61
2022/10/22 07:16:46;;;;;;;12.50;4.22;;;13.00;99.90;;;;;;5040125;28;20517;-61
2022/10/22 07:19:12;;;;;;;8.88;3.90;;;13.00;99.90;;;;;;5042029;28;20037;-61
2022/10/22 07:21:38;;;;;;;14.57;4.22;;;13.00;99.90;;;;;;5039259;28;20034;-61
2022/10/22 07:24:04;;;;;;;7.88;3.90;;;13.00;99.90;;;;;;5041707;28;20037;-61
2022/10/22 07:26:31;;;;;;;9.07;4.03;;;13.10;99.90;;;;;;5042747;28;20104;-61
2022/10/22 07:29:00;;;;;;;9.07;2.97;;;13.10;99.90;;;;;;5037132;28;20021;-61
2022/10/22 07:31:26;;;;;;;14.05;4.25;;;13.10;99.90;;;;;;5037875;28;20540;-60
2022/10/22 07:33:52;;;;;;;5.53;3.67;;;13.20;99.90;;;;;;5041146;28;20037;-61
2022/10/22 07:36:17;;;;;;;6.90;3.55;;;13.20;99.90;;;;;;5041791;28;20032;-62
2022/10/22 07:38:48;;;;;;;6.28;3.72;;;13.20;99.90;;;;;;5038139;28;20026;-59
2022/10/22 07:41:16;;;;;;;7.38;4.25;;;13.30;99.90;;;;;;5038549;28;20028;-61
2022/10/22 07:43:42;;;;;;;8.63;4.22;;;13.30;99.90;;;;;;5037568;28;20056;-60
2022/10/22 07:46:08;;;;;;;7.25;5.03;;;13.40;99.90;;;;;;5041249;28;20052;-61
2022/10/22 07:48:35;;;;;;;5.68;2.35;;;13.40;99.90;;;;;;5022882;28;20065;-61
2022/10/22 07:51:01;;;;;;;3.55;2.80;;;13.40;99.90;;;;;;5041259;28;20033;-61
2022/10/22 07:53:26;;;;;;;2.13;1.98;;;13.40;99.90;;;;;;5037222;28;20510;-61
2022/10/22 07:55:53;;;;;;;2.25;1.80;;;13.50;99.90;;;;;;5041099;28;20117;-61
2022/10/22 07:58:19;;;;;;;2.20;1.70;;;13.50;99.90;;;;;;5016661;28;20136;-60
2022/10/22 08:00:46;;;;;;;2.63;1.83;;;13.70;99.90;;;;;;5038198;28;20025;-62
2022/10/22 08:03:12;;;;;;;3.03;1.70;;;13.80;99.90;;;;;;5037605;28;20025;-61
2022/10/22 08:05:38;;;;;;;4.38;1.50;;;13.90;99.90;;;;;;5039207;28;20033;-58
2022/10/22 08:08:05;;;;;;;2.58;1.50;;;14.00;99.90;;;;;;5041982;28;20035;-57
2022/10/22 08:10:32;;;;;;;4.47;1.98;;;14.10;99.90;;;;;;5036320;28;20033;-61
2022/10/22 08:12:57;;;;;;;7.03;2.15;;;14.10;99.90;;;;;;5038262;28;20029;-61
2022/10/22 08:15:25;;;;;;;4.63;1.67;;;14.20;99.90;;;;;;5041579;28;20032;-61
2022/10/22 08:17:51;;;;;;;3.03;1.50;;;14.20;99.90;;;;;;5039955;28;20036;-61
2022/10/22 08:20:17;;;;;;;1.77;1.67;;;14.20;99.90;;;;;;5040172;28;20021;-61
2022/10/22 08:22:42;;;;;;;2.83;1.60;;;14.30;99.90;;;;;;5038409;28;20060;-61
2022/10/22 08:25:09;;;;;;;2.30;1.65;;;14.20;99.90;;;;;;5042168;28;20063;-61
2022/10/22 08:27:35;;;;;;;2.50;1.38;;;14.20;99.90;;;;;;5041000;28;20030;-61
2022/10/22 08:30:00;;;;;;;2.35;2.08;;;14.20;99.90;;;;;;5036804;28;20025;-61
2022/10/22 08:32:26;;;;;;;3.33;1.55;;;14.20;99.90;;;;;;5035639;28;20104;-61
2022/10/22 08:34:52;;;;;;;1.83;1.55;;;14.20;99.90;;;;;;5037294;28;20036;-62
2022/10/22 08:37:17;;;;;;;2.25;1.30;;;14.30;99.90;;;;;;5040108;28;20109;-61
2022/10/22 08:39:44;;;;;;;2.40;1.30;;;14.30;99.90;;;;;;5023198;28;20052;-62
2022/10/22 08:42:24;;;;;;;1.55;1.40;;;14.30;99.90;;;;;;5034332;28;20144;-61
2022/10/22 08:45:12;;;;;;;7.72;1.73;;;14.20;99.90;;;;;;5037369;28;20377;-60
2022/10/22 08:47:50;;;;;;;3.55;1.50;;;14.30;99.90;;;;;;5036571;28;20753;-61
2022/10/22 08:50:22;;;;;;;3.08;2.00;;;14.30;99.90;;;;;;5037017;28;20033;-60
2022/10/22 08:52:53;;;;;;;3.47;1.50;;;14.30;99.90;;;;;;5037460;28;20049;-60
2022/10/22 08:55:23;;;;;;;1.92;1.33;;;14.20;99.90;;;;;;5037648;28;20030;-61
2022/10/22 08:58:07;;;;;;;3.97;1.70;;;14.20;99.90;;;;;;5037796;28;20036;-61
2022/10/22 09:00:41;;;;;;;3.67;1.75;;;14.20;99.90;;;;;;5036270;28;20061;-61
2022/10/22 09:03:26;;;;;;;3.20;1.90;;;14.20;99.90;;;;;;5033132;28;20022;-60
2022/10/22 09:06:10;;;;;;;4.72;2.10;;;14.10;99.90;;;;;;5039254;28;20444;-60
2022/10/22 09:08:37;;;;;;;4.03;1.52;;;14.20;99.90;;;;;;5038208;28;20025;-61
2022/10/22 09:11:12;;;;;;;1.85;1.42;;;14.20;99.90;;;;;;5037581;28;20036;-61
2022/10/22 09:13:40;;;;;;;3.97;1.80;;;14.20;99.90;;;;;;5038800;28;20032;-60
2022/10/22 09:16:35;;;;;;;2.35;1.75;;;14.30;99.90;;;;;;5040431;28;20025;-61
2022/10/22 09:19:38;;;;;;;2.78;1.83;;;14.40;99.90;;;;;;5032162;28;20021;-61
2022/10/22 09:22:18;;;;;;;1.58;1.27;;;14.50;99.90;;;;;;5034974;28;20461;-61
2022/10/22 09:24:47;;;;;;;1.65;1.55;;;14.60;99.90;;;;;;5035882;28;20048;-60
2022/10/22 09:27:22;;;;;;;5.55;1.60;;;14.70;99.90;;;;;;5037560;28;20033;-62
2022/10/22 09:29:48;;;;;;;1.60;1.50;;;14.80;99.90;;;;;;5037816;28;20481;-61
2022/10/22 09:32:15;;;;;;;3.85;1.75;;;14.90;99.90;;;;;;5033791;28;20072;-61
2022/10/22 09:34:43;;;;;;;2.50;2.05;;;15.00;99.90;;;;;;5037649;28;20037;-61
2022/10/22 09:37:10;;;;;;;4.25;1.60;;;15.00;99.90;;;;;;5016792;28;20147;-61
2022/10/22 09:39:42;;;;;;;2.97;1.40;;;15.00;99.90;;;;;;5040305;28;20025;-60
2022/10/22 09:42:10;;;;;;;2.95;1.40;;;15.00;99.90;;;;;;5038769;28;20048;-61
2022/10/22 09:44:37;;;;;;;2.65;1.48;;;15.00;99.90;;;;;;5036607;28;20088;-60
2022/10/22 09:47:24;;;;;;;4.85;1.70;;;15.00;99.90;;;;;;5038154;28;20029;-61
2022/10/22 09:50:23;;;;;;;2.25;1.50;;;14.90;99.90;;;;;;5039444;28;20489;-61
2022/10/22 09:53:19;;;;;;;3.17;1.50;;;14.80;99.90;;;;;;5031265;28;20613;-60
2022/10/22 09:55:53;;;;;;;10.15;6.53;;;14.80;99.90;;;;;;5034017;28;20489;-60
2022/10/22 09:58:19;;;;;;;27.60;25.38;;;14.90;99.90;;;;;;5035927;28;20030;-61
2022/10/22 10:00:51;;;;;;;1.85;1.50;;;15.10;99.90;;;;;;5037561;28;20490;-60
2022/10/22 10:03:31;;;;;;;2.15;1.23;;;15.30;99.90;;;;;;5037486;28;20029;-61
2022/10/22 10:05:59;;;;;;;1.58;1.20;;;15.50;99.90;;;;;;5036452;28;20025;-60
2022/10/22 10:08:25;;;;;;;5.32;1.15;;;15.60;99.90;;;;;;5035857;28;20022;-61
2022/10/22 10:10:57;;;;;;;2.67;1.25;;;15.60;99.90;;;;;;5035722;28;20029;-60
2022/10/22 10:13:42;;;;;;;3.05;1.23;;;15.60;99.90;;;;;;5038454;28;20029;-61
2022/10/22 10:16:23;;;;;;;1.60;1.20;;;15.70;99.90;;;;;;5037119;28;20034;-61
2022/10/22 10:19:13;;;;;;;1.33;1.20;;;15.80;99.90;;;;;;5039052;28;20044;-61
2022/10/22 10:22:04;;;;;;;1.27;1.17;;;15.90;99.90;;;;;;5034724;28;20128;-61
2022/10/22 10:24:30;;;;;;;;;;;16.10;99.90;;;;;;5034130;28;20076;-61
2022/10/22 10:27:21;;;;;;;2.47;1.20;;;16.10;99.90;;;;;;5037379;28;20411;-61
2022/10/22 10:30:11;;;;;;;1.45;1.08;;;16.10;99.90;;;;;;5035977;28;20030;-60
2022/10/22 10:32:52;;;;;;;1.83;1.27;;;16.00;99.90;;;;;;5036960;28;20083;-61
2022/10/22 10:35:32;;;;;;;1.73;1.30;;;15.90;99.90;;;;;;5043884;28;20025;-62
2022/10/22 10:38:07;;;;;;;1.40;1.10;;;15.90;99.90;;;;;;5042646;28;20065;-61
2022/10/22 10:41:02;;;;;;;1.15;1.05;;;15.80;99.90;;;;;;5040584;28;20036;-61
2022/10/22 10:43:49;;;;;;;3.42;1.40;;;15.70;99.90;;;;;;5045862;28;20025;-61
2022/10/22 10:46:15;;;;;;;2.67;1.33;;;15.70;99.90;;;;;;5045044;28;20025;-60
2022/10/22 10:48:54;;;;;;;3.13;1.33;;;15.60;99.90;;;;;;5042856;28;20878;-60
2022/10/22 10:51:53;;;;;;;3.67;1.70;;;15.60;99.90;;;;;;5043078;28;20088;-60
2022/10/22 10:54:37;;;;;;;1.50;1.20;;;15.60;99.90;;;;;;5027366;28;20501;-61
2022/10/22 10:57:17;;;;;;;5.00;1.35;;;15.70;99.90;;;;;;5039581;28;20049;-62
2022/10/22 11:00:02;;;;;;;3.80;1.52;;;15.80;99.90;;;;;;5037733;28;20172;-61
2022/10/22 11:02:46;;;;;;;2.17;1.20;;;15.90;99.90;;;;;;5038088;28;20551;-61
2022/10/22 11:05:15;;;;;;;3.83;1.20;;;16.00;99.90;;;;;;5045161;28;20466;-59
2022/10/22 11:07:46;;;;;;;1.20;1.00;;;16.20;99.90;;;;;;5045690;28;20034;-59
2022/10/22 11:10:30;;;;;;;2.03;1.25;;;16.40;99.90;;;;;;5041619;28;20045;-59
2022/10/22 11:13:37;;;;;;;4.15;1.00;;;16.50;99.90;;;;;;5046164;28;20033;-59
2022/10/22 11:16:13;;;;;;;3.55;1.20;;;16.40;99.90;;;;;;5034977;28;20026;-59
2022/10/22 11:18:44;;;;;;;1.55;1.00;;;16.40;99.90;;;;;;5044997;28;20041;-59
2022/10/22 11:21:12;;;;;;;2.30;1.00;;;16.30;99.90;;;;;;5041898;28;20029;-59
2022/10/22 11:23:50;;;;;;;2.63;1.23;;;16.30;99.90;;;;;;5041427;28;20100;-57
2022/10/22 11:26:51;;;;;;;1.88;1.15;;;16.50;99.90;;;;;;5040104;28;20021;-59
2022/10/22 11:29:22;;;;;;;3.92;1.15;;;16.60;99.90;;;;;;5022390;28;20076;-59
2022/10/22 11:31:50;;;;;;;3.10;1.40;;;16.70;99.90;;;;;;5044107;28;20049;-58
2022/10/22 11:34:23;;;;;;;15.38;2.15;;;16.60;99.90;;;;;;5035195;28;20504;-59
2022/10/22 11:36:50;;;;;;;4.13;1.55;;;16.60;99.90;;;;;;5037945;28;20040;-59
2022/10/22 11:39:51;;;;;;;1.40;1.30;;;16.50;99.90;;;;;;5041046;28;20075;-58
2022/10/22 11:42:22;;;;;;;1.88;1.63;;;16.40;99.90;;;;;;5039851;28;20055;-58
2022/10/22 11:45:00;;;;;;;1.95;1.13;;;16.10;99.90;;;;;;5041715;28;20024;-59
2022/10/22 11:47:33;;;;;;;1.95;1.80;;;15.90;99.90;;;;;;5036603;28;20504;-57
2022/10/22 11:50:20;;;;;;;4.28;1.27;;;15.80;99.90;;;;;;5038325;28;20053;-58
2022/10/22 11:53:02;;;;;;;2.22;1.30;;;15.70;99.90;;;;;;5038726;28;20390;-60
2022/10/22 11:55:32;;;;;;;1.30;1.20;;;15.60;99.90;;;;;;5038539;28;20030;-60
2022/10/22 11:58:00;;;;;;;9.95;5.20;;;15.60;99.90;;;;;;5023911;28;20026;-60
2022/10/22 12:01:01;;;;;;;2.28;1.20;;;15.60;99.90;;;;;;5039535;28;20525;-61
2022/10/22 12:03:33;;;;;;;4.13;1.30;;;15.50;99.90;;;;;;5030234;28;20538;-60
2022/10/22 12:06:11;;;;;;;3.70;1.52;;;15.50;99.90;;;;;;5037229;28;20116;-60
2022/10/22 12:08:48;;;;;;;3.10;1.20;;;15.40;99.90;;;;;;5037456;28;20085;-60
2022/10/22 12:11:42;;;;;;;2.22;1.58;;;15.40;99.90;;;;;;5042569;28;20508;-60
2022/10/22 12:14:30;;;;;;;4.55;2.35;;;15.40;99.90;;;;;;5038166;28;20079;-60
2022/10/22 12:16:57;;;;;;;6.85;1.40;;;15.40;99.90;;;;;;5039443;28;20066;-61
2022/10/22 12:19:26;;;;;;;3.25;1.35;;;15.50;99.90;;;;;;5038474;28;20029;-60
2022/10/22 12:21:56;;;;;;;2.17;1.58;;;15.60;99.90;;;;;;5035697;28;20060;-60
2022/10/22 12:24:24;;;;;;;4.60;1.73;;;15.60;99.90;;;;;;5041171;28;20021;-61
2022/10/22 12:26:51;;;;;;;10.80;2.05;;;15.70;99.90;;;;;;5038500;28;20033;-60
2022/10/22 12:29:19;;;;;;;6.47;1.40;;;15.90;99.90;;;;;;5042213;28;20017;-61
2022/10/22 12:31:46;;;;;;;2.47;1.25;;;15.90;99.90;;;;;;5038745;28;20033;-60
2022/10/22 12:34:20;;;;;;;3.33;1.25;;;15.90;99.90;;;;;;5044032;28;20029;-60
2022/10/22 12:36:47;;;;;;;3.30;1.60;;;16.00;99.90;;;;;;5039191;28;20043;-61
2022/10/22 12:39:16;;;;;;;4.03;1.63;;;16.00;99.90;;;;;;5038980;28;20028;-60
2022/10/22 12:41:42;;;;;;;4.13;2.28;;;16.00;99.90;;;;;;5039122;28;20018;-60
2022/10/22 12:44:12;;;;;;;3.28;1.52;;;16.10;99.90;;;;;;5041796;28;20021;-60
2022/10/22 12:46:38;;;;;;;7.85;4.57;;;16.10;99.90;;;;;;5038636;28;20493;-61
2022/10/22 12:49:07;;;;;;;4.35;1.67;;;16.20;99.90;;;;;;5040542;28;20096;-60
2022/10/22 12:51:33;;;;;;;4.43;1.60;;;16.30;99.90;;;;;;5040116;28;20393;-60
2022/10/22 12:54:22;;;;;;;6.10;2.20;;;16.60;99.90;;;;;;5035859;28;20030;-60
2022/10/22 12:56:48;;;;;;;7.25;2.53;;;16.70;99.90;;;;;;5038336;28;20025;-61